Addison Township, MI

1:31 PM EST on November 28, 2014 (GMT -0500)
Village of Leonard | Change Station
CLOSE
Current Station
Personal Weather Station
Location: Leonard, MI
Elevation: 1014 ft
Nearby Weather Stations

Elev 1014 ft 42.87 °N, 83.15 °W | Updated 10 seconds ago

Overcast
Overcast
24.4 °F
Feels Like 20 °F
N
3.4
Wind Variable Wind from West
Gusts 4.9 mph

Today
High -- | Low -- °F
--% Chance of Precip.
Yesterday
High -- | Low -- °F
Precip. -- in
7:40 AM 5:00 PM
Waxing Crescent, 42% visible
Pressure 30.22 in
Visibility 10.0 miles
Clouds Mostly Cloudy 3400 ft
Mostly Cloudy 7500 ft
Overcast 12000 ft
Windchill 20 °F
Dew Point 8 °F
Humidity 49%
Rainfall 0.00 in
Snow Depth Not available.
UV 1 out of 12
Pollen .10 out of 12
Air Quality Not available.
Flu Activity Not available.
METAR KD95 281814Z AUTO 21008KT 10SM BKN034 BKN075 OVC120 M04/M11 A3022 RMK AO2 T10381106

More Conditions Fewer Conditions

Pressure 30.22 in
Visibility 10.0 miles
Clouds Mostly Cloudy 3400 ft
Mostly Cloudy 7500 ft
Overcast 12000 ft
Windchill 20 °F
Dew Point 8 °F
Humidity 49%
Rainfall 0.00 in
Snow Depth Not available.
UV 1 out of 12
Pollen .10 out of 12
Air Quality Not available.
Flu Activity Not available.
METAR KD95 281814Z AUTO 21008KT 10SM BKN034 BKN075 OVC120 M04/M11 A3022 RMK AO2 T10381106

More Conditions Fewer Conditions

10-Day Weather Forecast

Almanac

Astronomy

Nov. 28, 2014 Rise Set
Actual Time
Civil Twilight
Nautical Twilight
Astronomical Twilight
Moon
Length of Visible Light
Length of Day
Tomorrow will be .
, % of the Moon is Illuminated

Today's Extremes

State Highs State Lows

Community

WunderPhotos

Upload Photos

1,774,254 photos uploaded!

WunderBlogs® & News

Nearby

Air Quality

  Air Quality AQ Index Pollutant
Not available.

Snow Depth

Station Depth Elevation

Earthquake Activity

City Distance Mag. Time & Date
Minimum magnitude displayed is 2.5.

Coastal Water Temperatures

Place Temperature

Nearby Weather Stations